Aérodrome :
LOGIN :

S'inscrire | Disclaimer

   EN    FR    IT 

 










Légende :    VFR   VFR Marginal   IFR   IFR Intensif   IFR Très Intensif
Visi : 
Plafond : 
>= 8 km
>= 3000ft
5 à 8 km
1000 à 3000 ft
1500m à 5 km
500 à 1000 ft
800 à 1500m
200 à 500 ft
< 800m
< 200 ft
Symboles :   Orages  Brouillard  Fortes neiges  Fortes précipitations  Vent > 20 kt
SIGMETs :   Divers  Orages  Givrage  Turbulence  Onde Orograph.  Cendres Volcan.






- Altitude de l'aérodrome : 230 ft
- Code IATA : TBJ


DTKA - Tabarka 7 Novembre

DERNIER METAR :
  • 272200Z VRB01KT 9999 FEW020 10/08 Q1020 NOSIG

METARs EXPIRÉS :
  • 272100Z 00000KT 9999 FEW020 09/08 Q1020 NOSIG
  • 272000Z 21003KT 190V280 9999 FEW020 10/09 Q1020 NOSIG

TAF TAF DTKA
Valide du 27 à 22h jusqu'au 28 à 07h UTC


272100Z 2722/2807 VRB02KT 9999 FEW020



MET'MAP, la Météo Aéronautique d'un coup d'oeil ! - Copyright ORBIFLY Décembre 2007 - Disclaimer

ORBIFLY MET'MAP TEAM :

Programmation & Développement : Alexandra Zaïnal
Sur une idée originale de : Baudouin d'Aumeries
Assistance à la programmation : Marc-Olivier Méhu
Soutien technique & logistique : Manuel Goepfert

Contact : metmap@orbifly.com




SOURCES & CREDITS :

   NOAA